createdAt,value
2019-04-16T00:00:31.916Z,4.37
2019-04-16T00:03:00.049Z,4.80
2019-04-16T00:05:43.309Z,4.60
2019-04-16T00:08:27.382Z,4.40
2019-04-16T00:10:57.785Z,3.70
2019-04-16T00:13:48.231Z,4.27
2019-04-16T00:16:16.379Z,4.50
2019-04-16T00:18:56.690Z,4.20
2019-04-16T00:21:33.017Z,4.60
2019-04-16T00:24:20.768Z,4.63
2019-04-16T00:26:57.847Z,4.07
2019-04-16T00:29:23.731Z,4.87
2019-04-16T00:32:02.104Z,4.77
2019-04-16T00:34:30.262Z,4.87
2019-04-16T00:36:58.750Z,4.90
2019-04-16T00:39:26.878Z,4.50
2019-04-16T00:41:55.462Z,3.80
2019-04-16T00:44:23.767Z,5.10
2019-04-16T00:46:52.097Z,5.10
2019-04-16T00:49:20.343Z,5.10
2019-04-16T00:51:48.632Z,4.70
2019-04-16T00:54:16.987Z,5.00
2019-04-16T00:56:46.743Z,4.53
2019-04-16T00:59:15.239Z,4.83
2019-04-16T01:01:43.688Z,4.87
2019-04-16T01:04:12.394Z,5.33
2019-04-16T01:06:41.342Z,5.17
2019-04-16T01:09:09.716Z,4.83
2019-04-16T01:11:37.858Z,5.10
2019-04-16T01:14:06.046Z,5.00
2019-04-16T01:16:34.392Z,5.80
2019-04-16T01:19:02.635Z,4.83
2019-04-16T01:21:30.808Z,5.13
2019-04-16T01:23:59.447Z,5.27
2019-04-16T01:26:28.077Z,5.40
2019-04-16T01:29:05.302Z,4.70
2019-04-16T01:31:53.134Z,5.30
2019-04-16T01:34:48.322Z,5.33
2019-04-16T01:37:25.528Z,5.30
2019-04-16T01:39:54.616Z,4.97
2019-04-16T01:42:23.684Z,5.33
2019-04-16T01:44:53.075Z,4.97
2019-04-16T01:47:21.224Z,5.50
2019-04-16T01:49:49.584Z,4.97
2019-04-16T01:52:18.942Z,5.20
2019-04-16T01:54:48.181Z,5.47
2019-04-16T01:57:16.315Z,5.63
2019-04-16T01:59:44.561Z,5.10
2019-04-16T02:02:15.577Z,4.90
2019-04-16T02:04:42.879Z,4.97
2019-04-16T02:07:12.486Z,5.40
2019-04-16T02:09:40.924Z,5.10
2019-04-16T02:12:12.802Z,5.20
2019-04-16T02:14:40.940Z,5.80
2019-04-16T02:17:09.223Z,5.67
2019-04-16T02:19:37.429Z,5.57
2019-04-16T02:22:05.803Z,4.97
2019-04-16T02:24:33.924Z,4.80
2019-04-16T02:27:02.164Z,4.87
2019-04-16T02:29:30.698Z,4.83
2019-04-16T02:31:59.032Z,4.90
2019-04-16T02:34:27.993Z,5.30
2019-04-16T02:37:00.826Z,5.57
2019-04-16T02:39:46.666Z,4.93
2019-04-16T02:41:58.165Z,5.50
2019-04-16T02:44:26.835Z,5.97
2019-04-16T02:46:55.026Z,4.67
2019-04-16T02:49:25.158Z,5.80
2019-04-16T02:51:59.231Z,5.80
2019-04-16T02:54:34.278Z,5.17
2019-04-16T02:57:25.930Z,4.73
2019-04-16T02:59:51.560Z,5.07
2019-04-16T03:02:42.103Z,5.23
2019-04-16T03:05:29.068Z,5.77
2019-04-16T03:08:01.498Z,5.20
2019-04-16T03:10:29.024Z,5.63
2019-04-16T03:12:57.307Z,5.20
2019-04-16T03:15:48.411Z,5.43
2019-04-16T03:18:18.191Z,5.30
2019-04-16T03:20:46.357Z,5.30
2019-04-16T03:23:15.671Z,5.50
2019-04-16T03:25:44.374Z,5.50
2019-04-16T03:28:13.506Z,5.30
2019-04-16T03:30:42.829Z,4.90
2019-04-16T03:33:14.383Z,5.30
2019-04-16T03:35:41.785Z,4.53
2019-04-16T03:38:10.051Z,4.60
2019-04-16T03:40:38.533Z,4.47
2019-04-16T03:43:06.818Z,5.13
2019-04-16T03:45:37.587Z,5.60
2019-04-16T03:48:05.863Z,4.93
2019-04-16T03:50:34.172Z,5.27
2019-04-16T03:53:02.360Z,5.23
2019-04-16T03:55:30.566Z,5.03
2019-04-16T03:57:58.780Z,5.00
2019-04-16T04:00:27.030Z,4.90
2019-04-16T04:02:55.490Z,5.90
2019-04-16T04:05:23.850Z,4.83
2019-04-16T04:07:55.066Z,5.50
2019-04-16T04:10:30.305Z,5.27
2019-04-16T04:12:52.821Z,5.03
2019-04-16T04:15:26.027Z,4.97
2019-04-16T04:17:51.857Z,5.57
2019-04-16T04:20:20.063Z,5.33
2019-04-16T04:22:48.221Z,5.47
2019-04-16T04:25:16.517Z,4.97
2019-04-16T04:27:46.650Z,5.47
2019-04-16T04:30:17.374Z,5.63
2019-04-16T04:32:47.550Z,5.33
2019-04-16T04:35:20.215Z,4.50
2019-04-16T04:37:45.914Z,5.40
2019-04-16T04:40:15.882Z,5.17
2019-04-16T04:42:44.605Z,4.93
2019-04-16T04:45:12.998Z,4.90
2019-04-16T04:47:41.147Z,5.80
2019-04-16T04:50:09.701Z,5.10
2019-04-16T04:52:37.867Z,5.87
2019-04-16T04:55:06.571Z,5.67
2019-04-16T04:57:34.710Z,5.07
2019-04-16T05:00:05.625Z,5.27
2019-04-16T05:02:34.294Z,5.50
2019-04-16T05:05:25.652Z,5.30
2019-04-16T05:07:53.372Z,5.70
2019-04-16T05:10:21.692Z,5.00
2019-04-16T05:12:52.931Z,5.30
2019-04-16T05:15:21.091Z,5.07
2019-04-16T05:17:49.248Z,5.27
2019-04-16T05:20:17.940Z,4.70
2019-04-16T05:22:46.450Z,5.13
2019-04-16T05:25:15.270Z,4.47
2019-04-16T05:27:43.865Z,5.33
2019-04-16T05:30:13.137Z,5.70
2019-04-16T05:32:42.015Z,5.30
2019-04-16T05:35:10.931Z,4.90
2019-04-16T05:37:40.019Z,4.57
2019-04-16T05:40:08.380Z,5.20
2019-04-16T05:42:36.886Z,4.70
2019-04-16T05:45:06.423Z,4.83
2019-04-16T05:47:34.908Z,4.53
2019-04-16T05:50:03.635Z,4.93
2019-04-16T05:52:32.355Z,5.10
2019-04-16T05:55:08.669Z,4.07
2019-04-16T05:57:39.041Z,4.23
2019-04-16T06:00:16.430Z,4.93
2019-04-16T06:02:49.790Z,4.87
2019-04-16T06:05:14.914Z,4.90
2019-04-16T06:07:43.204Z,4.53
2019-04-16T06:10:17.131Z,4.77
2019-04-16T06:13:04.184Z,5.17
2019-04-16T06:15:52.986Z,4.43
2019-04-16T06:18:37.041Z,4.53
2019-04-16T06:21:35.021Z,4.20
2019-04-16T06:24:22.874Z,4.97
2019-04-16T06:27:05.372Z,5.13
2019-04-16T06:30:02.403Z,4.57
2019-04-16T06:32:56.353Z,4.70
2019-04-16T06:35:43.929Z,5.10
2019-04-16T06:38:18.713Z,4.47
2019-04-16T06:41:03.227Z,4.90
2019-04-16T06:43:34.945Z,5.63
2019-04-16T06:46:21.880Z,4.50
2019-04-16T06:49:01.772Z,4.83
2019-04-16T06:51:55.777Z,4.80
2019-04-16T06:54:38.392Z,4.33
2019-04-16T06:57:15.312Z,4.77
2019-04-16T07:00:08.940Z,4.60
2019-04-16T07:03:05.568Z,4.93
2019-04-16T07:06:03.654Z,4.73
2019-04-16T07:08:43.676Z,4.43
2019-04-16T07:11:11.860Z,4.50
2019-04-16T07:13:42.204Z,4.33
2019-04-16T07:16:10.656Z,5.13
2019-04-16T07:18:39.343Z,4.77
2019-04-16T07:21:07.683Z,5.03
2019-04-16T07:23:35.974Z,4.47
2019-04-16T07:26:04.851Z,4.83
2019-04-16T07:28:58.529Z,4.17
2019-04-16T07:31:34.498Z,4.80
2019-04-16T07:34:32.642Z,4.70
2019-04-16T07:37:23.191Z,4.03
2019-04-16T07:39:59.517Z,5.00
2019-04-16T07:42:52.121Z,5.37
2019-04-16T07:45:44.872Z,5.03
2019-04-16T07:48:22.712Z,4.70
2019-04-16T07:51:11.279Z,4.77
2019-04-16T07:53:57.649Z,4.17
2019-04-16T07:56:26.169Z,5.20
2019-04-16T07:58:54.749Z,5.47
2019-04-16T08:01:24.626Z,5.27
2019-04-16T08:03:52.814Z,5.17
2019-04-16T08:06:20.948Z,5.10
2019-04-16T08:08:49.317Z,5.00
2019-04-16T08:11:17.460Z,4.60
2019-04-16T08:13:45.883Z,5.10
2019-04-16T08:16:14.392Z,5.53
2019-04-16T08:18:51.710Z,5.10
2019-04-16T08:21:22.459Z,5.77
2019-04-16T08:23:55.965Z,5.63
2019-04-16T08:26:24.411Z,5.47
2019-04-16T08:28:52.603Z,5.87
2019-04-16T08:31:26.007Z,4.97
2019-04-16T08:33:54.317Z,5.23
2019-04-16T08:36:22.441Z,5.13
2019-04-16T08:38:50.575Z,5.00
2019-04-16T08:41:21.378Z,5.20
2019-04-16T08:43:48.820Z,5.70
2019-04-16T08:46:17.041Z,5.63
2019-04-16T08:48:48.926Z,5.07
2019-04-16T08:51:29.353Z,5.40
2019-04-16T08:53:46.750Z,6.13
2019-04-16T08:56:15.492Z,5.67
2019-04-16T08:58:43.745Z,5.50
2019-04-16T09:01:15.446Z,5.70
2019-04-16T09:03:45.273Z,4.87
2019-04-16T09:06:14.282Z,5.73
2019-04-16T09:09:12.780Z,5.60
2019-04-16T09:11:35.457Z,4.87
2019-04-16T09:14:03.824Z,5.37
2019-04-16T09:16:34.229Z,6.67
2019-04-16T09:19:08.652Z,5.87
2019-04-16T09:21:37.092Z,4.77
2019-04-16T09:24:23.743Z,5.57
2019-04-16T09:27:14.322Z,5.77
2019-04-16T09:30:02.764Z,5.80
2019-04-16T09:32:53.474Z,5.40
2019-04-16T09:35:27.621Z,5.63
2019-04-16T09:38:21.429Z,6.60
2019-04-16T09:41:12.816Z,6.13
2019-04-16T09:43:44.159Z,6.07
2019-04-16T09:46:21.234Z,7.07
2019-04-16T09:48:42.529Z,6.37
2019-04-16T09:51:10.695Z,6.20
2019-04-16T09:53:40.438Z,6.20
2019-04-16T09:56:29.989Z,7.53
2019-04-16T09:59:02.633Z,7.00
2019-04-16T10:01:37.544Z,6.20
2019-04-16T10:04:06.538Z,7.07
2019-04-16T10:06:34.833Z,6.27
2019-04-16T10:09:05.153Z,6.73
2019-04-16T10:11:35.705Z,6.40
2019-04-16T10:14:03.915Z,6.80
2019-04-16T10:16:32.359Z,6.23
2019-04-16T10:19:00.590Z,5.90
2019-04-16T10:21:29.357Z,6.33
2019-04-16T10:24:26.441Z,5.93
2019-04-16T10:26:56.954Z,6.10
2019-04-16T10:29:26.361Z,6.07
2019-04-16T10:31:55.174Z,6.50
2019-04-16T10:34:23.508Z,6.43
2019-04-16T10:36:51.723Z,6.13
2019-04-16T10:39:38.541Z,5.83
2019-04-16T10:42:33.624Z,6.00
2019-04-16T10:45:20.476Z,5.23
2019-04-16T10:48:11.121Z,4.83
2019-04-16T10:51:15.185Z,4.53
2019-04-16T10:53:50.995Z,4.97
2019-04-16T10:56:38.857Z,5.03
2019-04-16T10:59:25.439Z,5.40
2019-04-16T11:02:19.052Z,5.03
2019-04-16T11:05:10.012Z,5.40
2019-04-16T11:07:38.665Z,5.53
2019-04-16T11:10:07.373Z,5.20
2019-04-16T11:12:35.594Z,5.17
2019-04-16T11:15:04.885Z,5.27
2019-04-16T11:17:33.057Z,5.67
2019-04-16T11:20:01.340Z,5.80
2019-04-16T11:22:29.478Z,5.23
2019-04-16T11:24:57.687Z,4.93
2019-04-16T11:27:25.974Z,5.67
2019-04-16T11:29:54.113Z,5.93
2019-04-16T11:32:25.841Z,5.47
2019-04-16T11:34:54.155Z,5.80
2019-04-16T11:37:22.399Z,5.20
2019-04-16T11:39:50.619Z,5.57
2019-04-16T11:42:18.916Z,5.47
2019-04-16T11:44:50.116Z,5.67
2019-04-16T11:47:17.808Z,5.00
2019-04-16T11:49:46.498Z,5.53
2019-04-16T11:52:15.055Z,4.80
2019-04-16T11:54:46.751Z,4.63
2019-04-16T11:57:13.949Z,5.17
2019-04-16T11:59:42.337Z,4.87
2019-04-16T12:02:17.181Z,4.90
2019-04-16T12:04:59.329Z,4.77
2019-04-16T12:07:41.114Z,4.70
2019-04-16T12:10:30.178Z,4.80
2019-04-16T12:13:16.811Z,5.23
2019-04-16T12:15:55.178Z,5.17
2019-04-16T12:18:34.929Z,5.30
2019-04-16T12:21:09.705Z,5.40
2019-04-16T12:23:56.333Z,5.07
2019-04-16T12:26:36.392Z,5.70
2019-04-16T12:29:15.522Z,4.30
2019-04-16T12:32:04.317Z,5.83
2019-04-16T12:34:51.306Z,4.20
2019-04-16T12:37:48.395Z,5.00
2019-04-16T12:40:34.897Z,4.83
2019-04-16T12:43:08.797Z,5.23
2019-04-16T12:45:44.140Z,4.90
2019-04-16T12:48:34.764Z,4.63
2019-04-16T12:51:17.645Z,4.67
2019-04-16T12:53:57.693Z,4.60
2019-04-16T12:56:44.130Z,5.13
2019-04-16T12:59:44.036Z,4.80
2019-04-16T13:02:26.493Z,4.50
2019-04-16T13:04:59.622Z,4.80
2019-04-16T13:07:47.645Z,5.60
2019-04-16T13:10:24.959Z,5.53
2019-04-16T13:13:31.142Z,5.23
2019-04-16T13:16:17.725Z,4.80
2019-04-16T13:19:11.059Z,5.53
2019-04-16T13:21:51.705Z,5.40
2019-04-16T13:24:36.395Z,4.87
2019-04-16T13:27:14.431Z,5.93
2019-04-16T13:29:42.764Z,6.00
2019-04-16T13:32:10.998Z,5.67
2019-04-16T13:34:39.173Z,5.50
2019-04-16T13:37:07.358Z,6.17
2019-04-16T13:40:01.557Z,5.80
2019-04-16T13:42:29.912Z,6.57
2019-04-16T13:45:17.272Z,5.97
2019-04-16T13:47:45.604Z,6.13
2019-04-16T13:50:21.622Z,6.23
2019-04-16T13:52:55.074Z,5.47
2019-04-16T13:55:44.638Z,6.00
2019-04-16T13:58:23.150Z,7.23
2019-04-16T14:00:55.912Z,6.33
2019-04-16T14:03:24.947Z,6.30
2019-04-16T14:05:53.776Z,6.40
2019-04-16T14:08:21.971Z,6.03
2019-04-16T14:10:50.114Z,6.10
2019-04-16T14:13:18.339Z,6.30
2019-04-16T14:15:46.666Z,6.73
2019-04-16T14:18:14.803Z,6.90
2019-04-16T14:20:43.090Z,6.23
2019-04-16T14:23:11.381Z,6.93
2019-04-16T14:25:39.608Z,6.70
2019-04-16T14:28:08.017Z,6.50
2019-04-16T14:30:42.692Z,6.27
2019-04-16T14:33:13.413Z,6.57
2019-04-16T14:35:41.645Z,6.90
2019-04-16T14:38:10.946Z,6.70
2019-04-16T14:40:39.636Z,7.03
2019-04-16T14:43:09.512Z,7.23
2019-04-16T14:45:58.368Z,7.53
2019-04-16T14:48:18.800Z,7.63
2019-04-16T14:50:46.977Z,7.50
2019-04-16T14:53:36.000Z,7.57
2019-04-16T14:56:12.540Z,7.20
2019-04-16T14:58:46.211Z,7.07
2019-04-16T15:01:43.187Z,7.28
2019-04-16T15:04:30.961Z,6.63
2019-04-16T15:07:14.120Z,7.13
2019-04-16T15:10:11.316Z,7.07
2019-04-16T15:12:49.896Z,7.23
2019-04-16T15:15:39.756Z,7.23
2019-04-16T15:18:28.222Z,7.03
2019-04-16T15:21:14.888Z,6.63
2019-04-16T15:24:02.139Z,7.20
2019-04-16T15:26:52.101Z,6.50
2019-04-16T15:29:44.551Z,7.37
2019-04-16T15:32:41.246Z,7.30
2019-04-16T15:35:14.935Z,6.93
2019-04-16T15:38:08.372Z,7.17
2019-04-16T15:40:40.353Z,7.03
2019-04-16T15:43:19.588Z,7.47
2019-04-16T15:46:26.341Z,6.83
2019-04-16T15:49:23.121Z,7.47
2019-04-16T15:52:10.111Z,7.30
2019-04-16T15:54:51.474Z,7.80
2019-04-16T15:57:49.515Z,8.53
2019-04-16T16:00:36.127Z,6.93
2019-04-16T16:03:20.023Z,7.67
2019-04-16T16:05:52.954Z,7.90
2019-04-16T16:08:26.986Z,7.83
2019-04-16T16:10:59.138Z,6.40
2019-04-16T16:13:27.571Z,7.77
2019-04-16T16:15:55.870Z,7.93
2019-04-16T16:18:24.249Z,7.83
2019-04-16T16:20:52.549Z,7.20
2019-04-16T16:23:20.682Z,7.37
2019-04-16T16:25:48.868Z,8.10
2019-04-16T16:28:17.071Z,7.37
2019-04-16T16:30:45.378Z,7.10
2019-04-16T16:33:13.524Z,7.33
2019-04-16T16:35:56.532Z,7.40
2019-04-16T16:38:14.079Z,8.47
2019-04-16T16:40:41.923Z,8.23
2019-04-16T16:43:10.061Z,7.70
2019-04-16T16:45:47.327Z,6.90
2019-04-16T16:48:15.583Z,6.73
2019-04-16T16:50:44.626Z,7.97
2019-04-16T16:53:24.215Z,8.13
2019-04-16T16:55:56.581Z,8.13
2019-04-16T16:58:52.429Z,8.67
2019-04-16T17:01:40.608Z,9.50
2019-04-16T17:04:28.316Z,8.07
2019-04-16T17:06:56.619Z,8.00
2019-04-16T17:09:33.465Z,9.00
2019-04-16T17:12:01.773Z,8.40
2019-04-16T17:14:30.014Z,8.37
2019-04-16T17:17:11.849Z,9.57
2019-04-16T17:19:28.447Z,8.80
2019-04-16T17:21:56.671Z,9.03
2019-04-16T17:24:24.891Z,9.33
2019-04-16T17:26:53.199Z,9.90
2019-04-16T17:29:21.558Z,9.07
2019-04-16T17:31:50.393Z,8.47
2019-04-16T17:34:18.648Z,8.10
2019-04-16T17:36:46.965Z,8.47
2019-04-16T17:39:21.603Z,9.03
2019-04-16T17:41:59.698Z,8.90
2019-04-16T17:44:35.692Z,8.53
2019-04-16T17:47:31.998Z,8.60
2019-04-16T17:50:16.591Z,9.03
2019-04-16T17:53:05.106Z,8.97
2019-04-16T17:55:59.928Z,8.37
2019-04-16T17:58:36.370Z,8.13
2019-04-16T18:01:21.595Z,8.70
2019-04-16T18:04:28.542Z,8.43
2019-04-16T18:07:23.777Z,8.73
2019-04-16T18:10:04.360Z,9.23
2019-04-16T18:12:55.404Z,9.20
2019-04-16T18:15:42.551Z,8.30
2019-04-16T18:18:21.153Z,8.67
2019-04-16T18:21:13.560Z,8.73
2019-04-16T18:24:03.141Z,9.73
2019-04-16T18:26:52.830Z,8.30
2019-04-16T18:29:31.697Z,9.13
2019-04-16T18:32:21.408Z,8.77
2019-04-16T18:35:16.083Z,8.93
2019-04-16T18:38:19.132Z,8.83
2019-04-16T18:41:21.860Z,9.53
2019-04-16T18:44:08.600Z,9.33
2019-04-16T18:47:03.788Z,10.07
2019-04-16T18:49:30.047Z,10.13
2019-04-16T18:51:58.291Z,9.40
2019-04-16T18:54:26.623Z,9.97
2019-04-16T18:56:54.811Z,9.17
2019-04-16T18:59:22.956Z,9.40
2019-04-16T19:01:54.524Z,9.23
2019-04-16T19:04:22.838Z,9.13
2019-04-16T19:06:51.084Z,8.67
2019-04-16T19:09:20.992Z,9.80
2019-04-16T19:11:49.439Z,8.77
2019-04-16T19:14:17.561Z,8.97
2019-04-16T19:16:45.778Z,9.70
2019-04-16T19:19:13.980Z,9.30
2019-04-16T19:21:42.677Z,8.90
2019-04-16T19:24:11.220Z,9.47
2019-04-16T19:26:39.423Z,9.70
2019-04-16T19:29:13.113Z,10.00
2019-04-16T19:31:38.084Z,9.63
2019-04-16T19:34:10.210Z,9.60
2019-04-16T19:36:36.383Z,9.83
2019-04-16T19:39:07.113Z,9.37
2019-04-16T19:41:36.462Z,9.50
2019-04-16T19:44:07.716Z,8.83
2019-04-16T19:46:40.744Z,9.00
2019-04-16T19:49:13.285Z,8.90
2019-04-16T19:51:46.480Z,8.60
2019-04-16T19:54:14.942Z,9.20
2019-04-16T19:56:43.108Z,8.83
2019-04-16T19:59:11.434Z,8.70
2019-04-16T20:01:39.694Z,9.33
2019-04-16T20:04:10.715Z,8.70
2019-04-16T20:06:38.033Z,9.20
2019-04-16T20:09:08.957Z,9.03
2019-04-16T20:11:38.957Z,8.57
2019-04-16T20:14:07.582Z,8.90
2019-04-16T20:16:35.844Z,8.90
2019-04-16T20:19:04.156Z,9.13
2019-04-16T20:21:32.346Z,8.27
2019-04-16T20:24:00.502Z,8.47
2019-04-16T20:26:29.302Z,8.47
2019-04-16T20:28:58.743Z,8.93
2019-04-16T20:31:27.988Z,8.27
2019-04-16T20:33:56.272Z,9.17
2019-04-16T20:36:24.592Z,9.47
2019-04-16T20:38:52.760Z,8.83
2019-04-16T20:41:21.732Z,9.27
2019-04-16T20:43:49.945Z,9.17
2019-04-16T20:46:18.167Z,8.73
2019-04-16T20:48:46.390Z,9.20
2019-04-16T20:51:14.803Z,8.43
2019-04-16T20:53:43.027Z,9.70
2019-04-16T20:56:11.481Z,8.33
2019-04-16T20:58:39.756Z,8.50
2019-04-16T21:01:08.052Z,8.00
2019-04-16T21:03:36.348Z,8.37
2019-04-16T21:06:07.592Z,8.60
2019-04-16T21:08:34.788Z,8.60
2019-04-16T21:11:07.884Z,9.20
2019-04-16T21:13:33.420Z,8.37
2019-04-16T21:16:02.857Z,9.63
2019-04-16T21:18:32.722Z,8.57
2019-04-16T21:21:02.960Z,8.60
2019-04-16T21:23:31.946Z,8.80
2019-04-16T21:26:01.739Z,8.77
2019-04-16T21:28:36.455Z,8.40
2019-04-16T21:31:12.979Z,8.67
2019-04-16T21:34:02.345Z,8.53
2019-04-16T21:36:58.990Z,8.83
2019-04-16T21:39:33.064Z,9.00
2019-04-16T21:42:03.268Z,8.80
2019-04-16T21:44:31.965Z,9.27
2019-04-16T21:47:00.101Z,8.03
2019-04-16T21:49:38.436Z,7.97
2019-04-16T21:52:06.947Z,7.83
2019-04-16T21:54:35.549Z,7.93
2019-04-16T21:57:03.903Z,8.17
2019-04-16T21:59:32.179Z,8.50
2019-04-16T22:02:01.233Z,8.47
2019-04-16T22:04:29.408Z,8.00
2019-04-16T22:06:57.777Z,7.70
2019-04-16T22:09:25.958Z,8.63
2019-04-16T22:11:54.122Z,8.37
2019-04-16T22:14:22.978Z,7.50
2019-04-16T22:16:51.369Z,8.10
2019-04-16T22:19:19.593Z,8.23
2019-04-16T22:21:47.753Z,7.87
2019-04-16T22:24:15.899Z,7.97
2019-04-16T22:26:44.134Z,8.23
2019-04-16T22:29:15.364Z,7.30
2019-04-16T22:31:42.409Z,7.70
2019-04-16T22:34:10.836Z,7.80
2019-04-16T22:36:39.011Z,8.17
2019-04-16T22:39:20.446Z,7.93
2019-04-16T22:42:01.148Z,7.77
2019-04-16T22:44:51.119Z,8.33
2019-04-16T22:47:24.564Z,8.10
2019-04-16T22:49:56.752Z,7.53
2019-04-16T22:52:22.843Z,8.20
2019-04-16T22:54:52.961Z,7.63
2019-04-16T22:57:21.145Z,6.87
2019-04-16T22:59:49.315Z,7.70
2019-04-16T23:02:26.385Z,7.53
2019-04-16T23:04:57.658Z,8.37
2019-04-16T23:07:24.853Z,7.83
2019-04-16T23:09:52.978Z,8.00
2019-04-16T23:12:21.173Z,6.67
2019-04-16T23:14:49.341Z,7.30
2019-04-16T23:17:19.736Z,7.23
2019-04-16T23:19:47.895Z,7.97
2019-04-16T23:22:16.076Z,7.20
2019-04-16T23:24:44.311Z,7.37
2019-04-16T23:27:12.719Z,7.70
2019-04-16T23:29:40.933Z,7.10
2019-04-16T23:32:09.146Z,6.90
2019-04-16T23:34:37.941Z,7.50
2019-04-16T23:37:07.408Z,7.43
2019-04-16T23:39:36.708Z,7.03
2019-04-16T23:42:05.878Z,6.87
2019-04-16T23:45:09.047Z,7.17
2019-04-16T23:47:56.960Z,7.47
2019-04-16T23:50:44.861Z,6.83
2019-04-16T23:53:17.833Z,6.70
2019-04-16T23:55:55.073Z,6.97
2019-04-16T23:58:31.126Z,7.00
